sensor_id;sensor_type;location;lat;lon;timestamp;P1;durP1;ratioP1;P2;durP2;ratioP2
65715;SDS011;63484;52.054;8.518;2023-04-24T00:01:12;0.40;;;0.32;;
65715;SDS011;63484;52.054;8.518;2023-04-24T00:06:15;0.30;;;0.30;;
65715;SDS011;63484;52.054;8.518;2023-04-24T00:11:18;0.20;;;0.20;;
65715;SDS011;63484;52.054;8.518;2023-04-24T00:16:20;0.57;;;0.37;;
65715;SDS011;63484;52.054;8.518;2023-04-24T00:26:27;0.25;;;0.22;;
65715;SDS011;63484;52.054;8.518;2023-04-24T00:31:31;0.43;;;0.32;;
65715;SDS011;63484;52.054;8.518;2023-04-24T00:36:37;0.38;;;0.30;;
65715;SDS011;63484;52.054;8.518;2023-04-24T00:41:40;1.55;;;0.50;;
65715;SDS011;63484;52.054;8.518;2023-04-24T00:46:41;3.40;;;0.50;;
65715;SDS011;63484;52.054;8.518;2023-04-24T00:51:45;0.43;;;0.32;;
65715;SDS011;63484;52.054;8.518;2023-04-24T00:56:48;4.97;;;0.35;;
65715;SDS011;63484;52.054;8.518;2023-04-24T01:01:51;0.43;;;0.30;;
65715;SDS011;63484;52.054;8.518;2023-04-24T01:06:53;2.50;;;0.40;;
65715;SDS011;63484;52.054;8.518;2023-04-24T01:11:57;0.70;;;0.40;;
65715;SDS011;63484;52.054;8.518;2023-04-24T01:16:59;0.65;;;0.40;;
65715;SDS011;63484;52.054;8.518;2023-04-24T01:22:02;1.85;;;0.60;;
65715;SDS011;63484;52.054;8.518;2023-04-24T01:27:05;1.27;;;0.63;;
65715;SDS011;63484;52.054;8.518;2023-04-24T01:32:08;1.35;;;0.60;;
65715;SDS011;63484;52.054;8.518;2023-04-24T01:37:10;0.88;;;0.60;;
65715;SDS011;63484;52.054;8.518;2023-04-24T01:42:13;0.80;;;0.80;;
65715;SDS011;63484;52.054;8.518;2023-04-24T01:47:14;1.00;;;0.87;;
65715;SDS011;63484;52.054;8.518;2023-04-24T01:52:16;1.17;;;1.00;;
65715;SDS011;63484;52.054;8.518;2023-04-24T01:57:20;3.08;;;0.80;;
65715;SDS011;63484;52.054;8.518;2023-04-24T02:02:21;0.83;;;0.70;;
65715;SDS011;63484;52.054;8.518;2023-04-24T02:07:24;1.00;;;0.90;;
65715;SDS011;63484;52.054;8.518;2023-04-24T02:12:27;1.02;;;0.80;;
65715;SDS011;63484;52.054;8.518;2023-04-24T02:17:28;1.00;;;0.90;;
65715;SDS011;63484;52.054;8.518;2023-04-24T02:22:31;1.83;;;1.23;;
65715;SDS011;63484;52.054;8.518;2023-04-24T02:27:37;1.45;;;1.20;;
65715;SDS011;63484;52.054;8.518;2023-04-24T02:32:39;2.33;;;1.40;;
65715;SDS011;63484;52.054;8.518;2023-04-24T02:37:44;2.80;;;1.65;;
65715;SDS011;63484;52.054;8.518;2023-04-24T02:42:47;2.03;;;1.33;;
65715;SDS011;63484;52.054;8.518;2023-04-24T02:47:51;2.15;;;1.40;;
65715;SDS011;63484;52.054;8.518;2023-04-24T02:52:52;3.17;;;1.40;;
65715;SDS011;63484;52.054;8.518;2023-04-24T02:57:55;2.63;;;1.50;;
65715;SDS011;63484;52.054;8.518;2023-04-24T03:02:57;1.90;;;1.35;;
65715;SDS011;63484;52.054;8.518;2023-04-24T03:08:00;2.38;;;1.20;;
65715;SDS011;63484;52.054;8.518;2023-04-24T03:13:05;1.92;;;1.00;;
65715;SDS011;63484;52.054;8.518;2023-04-24T03:18:08;2.17;;;1.20;;
65715;SDS011;63484;52.054;8.518;2023-04-24T03:23:10;1.48;;;1.27;;
65715;SDS011;63484;52.054;8.518;2023-04-24T03:28:13;1.50;;;1.20;;
65715;SDS011;63484;52.054;8.518;2023-04-24T03:33:23;1.98;;;1.10;;
65715;SDS011;63484;52.054;8.518;2023-04-24T03:38:42;2.03;;;1.10;;
65715;SDS011;63484;52.054;8.518;2023-04-24T03:44:11;2.70;;;1.08;;
65715;SDS011;63484;52.054;8.518;2023-04-24T03:49:14;1.63;;;1.20;;
65715;SDS011;63484;52.054;8.518;2023-04-24T03:59:21;2.25;;;1.20;;
65715;SDS011;63484;52.054;8.518;2023-04-24T04:04:33;2.03;;;1.30;;
65715;SDS011;63484;52.054;8.518;2023-04-24T04:09:35;2.10;;;1.30;;
65715;SDS011;63484;52.054;8.518;2023-04-24T04:14:38;2.17;;;1.60;;
65715;SDS011;63484;52.054;8.518;2023-04-24T04:19:40;1.88;;;1.52;;
65715;SDS011;63484;52.054;8.518;2023-04-24T04:24:42;2.38;;;1.65;;
65715;SDS011;63484;52.054;8.518;2023-04-24T04:29:47;3.63;;;1.85;;
65715;SDS011;63484;52.054;8.518;2023-04-24T04:34:51;3.50;;;1.60;;
65715;SDS011;63484;52.054;8.518;2023-04-24T04:39:54;2.83;;;1.88;;
65715;SDS011;63484;52.054;8.518;2023-04-24T04:45:00;2.63;;;2.10;;
65715;SDS011;63484;52.054;8.518;2023-04-24T04:50:13;3.33;;;2.20;;
65715;SDS011;63484;52.054;8.518;2023-04-24T04:55:17;10.30;;;3.25;;
65715;SDS011;63484;52.054;8.518;2023-04-24T05:00:43;6.07;;;3.85;;
65715;SDS011;63484;52.054;8.518;2023-04-24T05:05:51;9.50;;;5.40;;
65715;SDS011;63484;52.054;8.518;2023-04-24T05:10:53;8.30;;;5.20;;
65715;SDS011;63484;52.054;8.518;2023-04-24T05:15:57;10.00;;;5.60;;
65715;SDS011;63484;52.054;8.518;2023-04-24T05:21:02;8.82;;;5.63;;
65715;SDS011;63484;52.054;8.518;2023-04-24T05:26:04;9.93;;;5.90;;
65715;SDS011;63484;52.054;8.518;2023-04-24T05:31:07;11.52;;;6.22;;
65715;SDS011;63484;52.054;8.518;2023-04-24T05:36:09;12.52;;;6.43;;
65715;SDS011;63484;52.054;8.518;2023-04-24T05:41:11;11.93;;;6.18;;
65715;SDS011;63484;52.054;8.518;2023-04-24T05:46:13;11.98;;;6.50;;
65715;SDS011;63484;52.054;8.518;2023-04-24T05:51:15;11.98;;;6.90;;
65715;SDS011;63484;52.054;8.518;2023-04-24T05:56:16;14.13;;;7.38;;
65715;SDS011;63484;52.054;8.518;2023-04-24T06:01:22;10.52;;;6.18;;
65715;SDS011;63484;52.054;8.518;2023-04-24T06:06:32;12.02;;;6.97;;
65715;SDS011;63484;52.054;8.518;2023-04-24T06:11:37;13.48;;;7.03;;
65715;SDS011;63484;52.054;8.518;2023-04-24T06:16:41;14.30;;;7.72;;
65715;SDS011;63484;52.054;8.518;2023-04-24T06:21:55;12.50;;;7.47;;
65715;SDS011;63484;52.054;8.518;2023-04-24T06:26:57;12.35;;;7.80;;
65715;SDS011;63484;52.054;8.518;2023-04-24T06:32:01;12.63;;;8.43;;
65715;SDS011;63484;52.054;8.518;2023-04-24T06:37:02;18.37;;;8.83;;
65715;SDS011;63484;52.054;8.518;2023-04-24T06:42:06;13.90;;;8.45;;
65715;SDS011;63484;52.054;8.518;2023-04-24T06:47:10;15.20;;;8.73;;
65715;SDS011;63484;52.054;8.518;2023-04-24T06:52:13;13.30;;;8.32;;
65715;SDS011;63484;52.054;8.518;2023-04-24T06:57:15;14.77;;;8.48;;
65715;SDS011;63484;52.054;8.518;2023-04-24T07:02:18;13.18;;;8.55;;
65715;SDS011;63484;52.054;8.518;2023-04-24T07:07:20;14.53;;;9.00;;
65715;SDS011;63484;52.054;8.518;2023-04-24T07:12:21;14.88;;;8.10;;
65715;SDS011;63484;52.054;8.518;2023-04-24T07:17:26;16.02;;;8.48;;
65715;SDS011;63484;52.054;8.518;2023-04-24T07:22:28;15.27;;;8.40;;
65715;SDS011;63484;52.054;8.518;2023-04-24T07:27:29;12.40;;;7.28;;
65715;SDS011;63484;52.054;8.518;2023-04-24T07:32:32;14.25;;;7.60;;
65715;SDS011;63484;52.054;8.518;2023-04-24T07:37:34;10.80;;;6.83;;
65715;SDS011;63484;52.054;8.518;2023-04-24T07:42:35;11.18;;;5.93;;
65715;SDS011;63484;52.054;8.518;2023-04-24T07:47:38;12.68;;;5.80;;
65715;SDS011;63484;52.054;8.518;2023-04-24T07:52:43;9.38;;;5.25;;
65715;SDS011;63484;52.054;8.518;2023-04-24T07:57:44;9.98;;;6.05;;
65715;SDS011;63484;52.054;8.518;2023-04-24T08:02:47;5.97;;;4.32;;
65715;SDS011;63484;52.054;8.518;2023-04-24T08:07:51;8.52;;;4.28;;
65715;SDS011;63484;52.054;8.518;2023-04-24T08:12:53;6.70;;;4.00;;
65715;SDS011;63484;52.054;8.518;2023-04-24T08:17:57;7.63;;;4.07;;
65715;SDS011;63484;52.054;8.518;2023-04-24T08:23:00;6.68;;;3.58;;
65715;SDS011;63484;52.054;8.518;2023-04-24T08:28:02;12.95;;;4.30;;
65715;SDS011;63484;52.054;8.518;2023-04-24T08:33:05;4.97;;;3.70;;
65715;SDS011;63484;52.054;8.518;2023-04-24T08:38:07;4.93;;;3.70;;
65715;SDS011;63484;52.054;8.518;2023-04-24T08:43:08;4.68;;;3.10;;
65715;SDS011;63484;52.054;8.518;2023-04-24T08:48:12;7.63;;;5.28;;
65715;SDS011;63484;52.054;8.518;2023-04-24T08:53:14;4.33;;;2.60;;
65715;SDS011;63484;52.054;8.518;2023-04-24T08:58:16;5.30;;;2.50;;
65715;SDS011;63484;52.054;8.518;2023-04-24T09:03:20;2.70;;;2.40;;
65715;SDS011;63484;52.054;8.518;2023-04-24T09:08:24;4.22;;;2.00;;
65715;SDS011;63484;52.054;8.518;2023-04-24T09:13:26;3.70;;;2.30;;
65715;SDS011;63484;52.054;8.518;2023-04-24T09:18:29;3.13;;;2.05;;
65715;SDS011;63484;52.054;8.518;2023-04-24T09:23:33;2.20;;;1.88;;
65715;SDS011;63484;52.054;8.518;2023-04-24T09:28:35;3.58;;;1.98;;
65715;SDS011;63484;52.054;8.518;2023-04-24T09:33:38;3.05;;;1.80;;
65715;SDS011;63484;52.054;8.518;2023-04-24T09:38:41;4.15;;;1.95;;
65715;SDS011;63484;52.054;8.518;2023-04-24T09:43:43;3.08;;;2.00;;
65715;SDS011;63484;52.054;8.518;2023-04-24T09:53:50;2.25;;;1.70;;
65715;SDS011;63484;52.054;8.518;2023-04-24T09:59:03;1.73;;;1.27;;
65715;SDS011;63484;52.054;8.518;2023-04-24T10:04:14;2.25;;;1.48;;
65715;SDS011;63484;52.054;8.518;2023-04-24T10:09:21;2.35;;;1.60;;
65715;SDS011;63484;52.054;8.518;2023-04-24T10:19:25;1.40;;;1.27;;
65715;SDS011;63484;52.054;8.518;2023-04-24T10:24:30;1.25;;;1.15;;
65715;SDS011;63484;52.054;8.518;2023-04-24T10:29:35;1.48;;;1.27;;
65715;SDS011;63484;52.054;8.518;2023-04-24T10:34:37;4.60;;;1.15;;
65715;SDS011;63484;52.054;8.518;2023-04-24T10:39:39;1.40;;;1.30;;
65715;SDS011;63484;52.054;8.518;2023-04-24T10:44:41;2.87;;;1.63;;
65715;SDS011;63484;52.054;8.518;2023-04-24T10:49:43;2.53;;;2.13;;
65715;SDS011;63484;52.054;8.518;2023-04-24T10:54:46;3.45;;;2.60;;
65715;SDS011;63484;52.054;8.518;2023-04-24T10:59:52;3.35;;;2.70;;
65715;SDS011;63484;52.054;8.518;2023-04-24T11:05:11;4.10;;;3.38;;
65715;SDS011;63484;52.054;8.518;2023-04-24T11:10:25;4.22;;;3.10;;
65715;SDS011;63484;52.054;8.518;2023-04-24T11:15:27;4.07;;;3.15;;
65715;SDS011;63484;52.054;8.518;2023-04-24T11:20:29;5.45;;;3.67;;
65715;SDS011;63484;52.054;8.518;2023-04-24T11:25:34;3.70;;;3.17;;
65715;SDS011;63484;52.054;8.518;2023-04-24T11:30:36;3.38;;;2.45;;
65715;SDS011;63484;52.054;8.518;2023-04-24T11:35:41;2.10;;;1.70;;
65715;SDS011;63484;52.054;8.518;2023-04-24T11:40:46;1.63;;;1.15;;
65715;SDS011;63484;52.054;8.518;2023-04-24T11:45:49;1.38;;;1.20;;
65715;SDS011;63484;52.054;8.518;2023-04-24T11:50:51;0.50;;;0.50;;
65715;SDS011;63484;52.054;8.518;2023-04-24T11:55:54;0.90;;;0.60;;
65715;SDS011;63484;52.054;8.518;2023-04-24T12:00:56;0.50;;;0.50;;
65715;SDS011;63484;52.054;8.518;2023-04-24T12:06:04;1.40;;;0.80;;
65715;SDS011;63484;52.054;8.518;2023-04-24T12:11:09;2.58;;;1.13;;
65715;SDS011;63484;52.054;8.518;2023-04-24T12:16:10;3.13;;;1.00;;
65715;SDS011;63484;52.054;8.518;2023-04-24T12:21:19;3.95;;;2.15;;
65715;SDS011;63484;52.054;8.518;2023-04-24T12:26:22;5.10;;;1.90;;
65715;SDS011;63484;52.054;8.518;2023-04-24T12:31:24;4.10;;;1.90;;
65715;SDS011;63484;52.054;8.518;2023-04-24T12:36:26;3.97;;;2.20;;
65715;SDS011;63484;52.054;8.518;2023-04-24T12:41:30;5.85;;;2.80;;
65715;SDS011;63484;52.054;8.518;2023-04-24T12:46:31;9.13;;;2.80;;
65715;SDS011;63484;52.054;8.518;2023-04-24T12:51:33;7.00;;;2.72;;
65715;SDS011;63484;52.054;8.518;2023-04-24T12:56:36;8.65;;;4.20;;
65715;SDS011;63484;52.054;8.518;2023-04-24T13:01:40;7.20;;;2.92;;
65715;SDS011;63484;52.054;8.518;2023-04-24T13:06:41;6.10;;;2.80;;
65715;SDS011;63484;52.054;8.518;2023-04-24T13:11:44;4.82;;;2.80;;
65715;SDS011;63484;52.054;8.518;2023-04-24T13:16:46;3.83;;;2.13;;
65715;SDS011;63484;52.054;8.518;2023-04-24T13:21:47;4.72;;;2.40;;
65715;SDS011;63484;52.054;8.518;2023-04-24T13:26:50;4.57;;;2.05;;
65715;SDS011;63484;52.054;8.518;2023-04-24T13:31:52;5.63;;;2.43;;
65715;SDS011;63484;52.054;8.518;2023-04-24T13:36:55;3.97;;;2.30;;
65715;SDS011;63484;52.054;8.518;2023-04-24T13:41:58;9.77;;;3.08;;
65715;SDS011;63484;52.054;8.518;2023-04-24T13:47:00;6.80;;;3.20;;
65715;SDS011;63484;52.054;8.518;2023-04-24T13:52:01;9.48;;;3.58;;
65715;SDS011;63484;52.054;8.518;2023-04-24T13:57:04;7.30;;;3.55;;
65715;SDS011;63484;52.054;8.518;2023-04-24T14:02:06;10.93;;;4.47;;
65715;SDS011;63484;52.054;8.518;2023-04-24T14:07:07;13.25;;;4.10;;
65715;SDS011;63484;52.054;8.518;2023-04-24T14:12:10;9.48;;;3.90;;
65715;SDS011;63484;52.054;8.518;2023-04-24T14:17:12;7.18;;;3.67;;
65715;SDS011;63484;52.054;8.518;2023-04-24T14:22:14;8.65;;;3.97;;
65715;SDS011;63484;52.054;8.518;2023-04-24T14:27:18;12.70;;;4.55;;
65715;SDS011;63484;52.054;8.518;2023-04-24T14:32:19;8.73;;;3.87;;
65715;SDS011;63484;52.054;8.518;2023-04-24T14:37:21;17.45;;;3.72;;
65715;SDS011;63484;52.054;8.518;2023-04-24T14:42:42;10.35;;;3.90;;
65715;SDS011;63484;52.054;8.518;2023-04-24T14:47:46;10.82;;;4.35;;
65715;SDS011;63484;52.054;8.518;2023-04-24T14:52:47;7.88;;;3.35;;
65715;SDS011;63484;52.054;8.518;2023-04-24T14:57:50;10.65;;;4.25;;
65715;SDS011;63484;52.054;8.518;2023-04-24T15:02:52;9.85;;;3.95;;
65715;SDS011;63484;52.054;8.518;2023-04-24T15:07:55;12.53;;;3.60;;
65715;SDS011;63484;52.054;8.518;2023-04-24T15:12:58;7.68;;;3.50;;
65715;SDS011;63484;52.054;8.518;2023-04-24T15:18:00;10.48;;;2.67;;
65715;SDS011;63484;52.054;8.518;2023-04-24T15:23:03;7.05;;;2.38;;
65715;SDS011;63484;52.054;8.518;2023-04-24T15:28:06;6.55;;;2.28;;
65715;SDS011;63484;52.054;8.518;2023-04-24T15:33:08;7.47;;;2.60;;
65715;SDS011;63484;52.054;8.518;2023-04-24T15:38:09;4.95;;;2.40;;
65715;SDS011;63484;52.054;8.518;2023-04-24T15:43:12;4.22;;;2.28;;
65715;SDS011;63484;52.054;8.518;2023-04-24T15:48:14;5.80;;;2.37;;
65715;SDS011;63484;52.054;8.518;2023-04-24T15:53:15;4.72;;;2.10;;
65715;SDS011;63484;52.054;8.518;2023-04-24T15:58:22;4.38;;;1.75;;
65715;SDS011;63484;52.054;8.518;2023-04-24T16:03:24;2.50;;;1.87;;
65715;SDS011;63484;52.054;8.518;2023-04-24T16:08:25;3.72;;;2.05;;
65715;SDS011;63484;52.054;8.518;2023-04-24T16:13:28;2.85;;;1.63;;
65715;SDS011;63484;52.054;8.518;2023-04-24T16:23:32;5.18;;;2.10;;
65715;SDS011;63484;52.054;8.518;2023-04-24T16:28:35;2.75;;;1.77;;
65715;SDS011;63484;52.054;8.518;2023-04-24T16:33:36;5.87;;;2.20;;
65715;SDS011;63484;52.054;8.518;2023-04-24T16:38:38;2.58;;;1.65;;
65715;SDS011;63484;52.054;8.518;2023-04-24T16:43:41;4.68;;;2.22;;
65715;SDS011;63484;52.054;8.518;2023-04-24T16:48:43;5.63;;;2.30;;
65715;SDS011;63484;52.054;8.518;2023-04-24T16:53:44;4.00;;;1.83;;
65715;SDS011;63484;52.054;8.518;2023-04-24T16:58:47;5.07;;;1.95;;
65715;SDS011;63484;52.054;8.518;2023-04-24T17:03:49;4.17;;;1.90;;
65715;SDS011;63484;52.054;8.518;2023-04-24T17:08:50;5.75;;;2.33;;
65715;SDS011;63484;52.054;8.518;2023-04-24T17:13:53;4.40;;;1.65;;
65715;SDS011;63484;52.054;8.518;2023-04-24T17:18:55;8.43;;;1.93;;
65715;SDS011;63484;52.054;8.518;2023-04-24T17:23:58;3.08;;;1.50;;
65715;SDS011;63484;52.054;8.518;2023-04-24T17:29:00;2.65;;;1.50;;
65715;SDS011;63484;52.054;8.518;2023-04-24T17:34:02;4.73;;;1.87;;
65715;SDS011;63484;52.054;8.518;2023-04-24T17:39:04;4.75;;;1.73;;
65715;SDS011;63484;52.054;8.518;2023-04-24T17:44:07;7.20;;;2.17;;
65715;SDS011;63484;52.054;8.518;2023-04-24T17:49:09;9.50;;;2.25;;
65715;SDS011;63484;52.054;8.518;2023-04-24T17:54:10;4.63;;;1.70;;
65715;SDS011;63484;52.054;8.518;2023-04-24T17:59:13;5.95;;;1.80;;
65715;SDS011;63484;52.054;8.518;2023-04-24T18:04:15;6.50;;;1.67;;
65715;SDS011;63484;52.054;8.518;2023-04-24T18:09:17;8.13;;;2.00;;
65715;SDS011;63484;52.054;8.518;2023-04-24T18:14:21;6.53;;;2.10;;
65715;SDS011;63484;52.054;8.518;2023-04-24T18:19:23;6.70;;;2.13;;
65715;SDS011;63484;52.054;8.518;2023-04-24T18:24:24;6.45;;;1.95;;
65715;SDS011;63484;52.054;8.518;2023-04-24T18:34:31;5.57;;;1.70;;
65715;SDS011;63484;52.054;8.518;2023-04-24T18:39:33;7.90;;;2.13;;
65715;SDS011;63484;52.054;8.518;2023-04-24T18:44:34;6.50;;;1.90;;
65715;SDS011;63484;52.054;8.518;2023-04-24T18:49:39;6.80;;;1.98;;
65715;SDS011;63484;52.054;8.518;2023-04-24T18:54:41;9.60;;;2.42;;
65715;SDS011;63484;52.054;8.518;2023-04-24T18:59:43;11.10;;;2.80;;
65715;SDS011;63484;52.054;8.518;2023-04-24T19:04:45;8.52;;;2.30;;
65715;SDS011;63484;52.054;8.518;2023-04-24T19:09:49;10.50;;;2.47;;
65715;SDS011;63484;52.054;8.518;2023-04-24T19:14:51;9.10;;;2.45;;
65715;SDS011;63484;52.054;8.518;2023-04-24T19:19:58;7.70;;;2.60;;
65715;SDS011;63484;52.054;8.518;2023-04-24T19:25:00;6.53;;;2.40;;
65715;SDS011;63484;52.054;8.518;2023-04-24T19:30:02;12.85;;;2.42;;
65715;SDS011;63484;52.054;8.518;2023-04-24T19:40:08;11.32;;;2.97;;
65715;SDS011;63484;52.054;8.518;2023-04-24T19:45:14;8.15;;;3.20;;
65715;SDS011;63484;52.054;8.518;2023-04-24T19:50:15;8.15;;;3.22;;
65715;SDS011;63484;52.054;8.518;2023-04-24T19:55:20;11.35;;;3.22;;
65715;SDS011;63484;52.054;8.518;2023-04-24T20:00:24;8.93;;;3.22;;
65715;SDS011;63484;52.054;8.518;2023-04-24T20:05:26;11.13;;;3.10;;
65715;SDS011;63484;52.054;8.518;2023-04-24T20:10:29;10.70;;;3.45;;
65715;SDS011;63484;52.054;8.518;2023-04-24T20:15:30;7.50;;;2.50;;
65715;SDS011;63484;52.054;8.518;2023-04-24T20:20:33;10.13;;;3.15;;
65715;SDS011;63484;52.054;8.518;2023-04-24T20:25:39;15.07;;;3.50;;
65715;SDS011;63484;52.054;8.518;2023-04-24T20:30:40;14.32;;;4.07;;
65715;SDS011;63484;52.054;8.518;2023-04-24T20:35:42;8.60;;;2.55;;
65715;SDS011;63484;52.054;8.518;2023-04-24T20:40:47;12.20;;;2.92;;
65715;SDS011;63484;52.054;8.518;2023-04-24T20:45:48;12.13;;;3.70;;
65715;SDS011;63484;52.054;8.518;2023-04-24T20:50:50;9.63;;;3.33;;
65715;SDS011;63484;52.054;8.518;2023-04-24T20:55:57;12.35;;;3.25;;
65715;SDS011;63484;52.054;8.518;2023-04-24T21:00:58;11.65;;;3.45;;
65715;SDS011;63484;52.054;8.518;2023-04-24T21:06:00;8.23;;;3.25;;
65715;SDS011;63484;52.054;8.518;2023-04-24T21:11:03;11.95;;;3.10;;
65715;SDS011;63484;52.054;8.518;2023-04-24T21:16:07;11.95;;;3.42;;
65715;SDS011;63484;52.054;8.518;2023-04-24T21:21:08;10.32;;;3.10;;
65715;SDS011;63484;52.054;8.518;2023-04-24T21:26:11;10.50;;;3.30;;
65715;SDS011;63484;52.054;8.518;2023-04-24T21:31:13;7.72;;;3.15;;
65715;SDS011;63484;52.054;8.518;2023-04-24T21:36:14;12.80;;;3.53;;
65715;SDS011;63484;52.054;8.518;2023-04-24T21:41:17;12.27;;;4.00;;
65715;SDS011;63484;52.054;8.518;2023-04-24T21:46:19;12.00;;;3.55;;
65715;SDS011;63484;52.054;8.518;2023-04-24T21:51:21;12.65;;;3.55;;
65715;SDS011;63484;52.054;8.518;2023-04-24T21:56:23;10.45;;;3.40;;
65715;SDS011;63484;52.054;8.518;2023-04-24T22:01:25;12.20;;;4.00;;
65715;SDS011;63484;52.054;8.518;2023-04-24T22:06:29;8.00;;;2.85;;
65715;SDS011;63484;52.054;8.518;2023-04-24T22:11:34;16.55;;;3.40;;
65715;SDS011;63484;52.054;8.518;2023-04-24T22:16:37;10.63;;;3.22;;
65715;SDS011;63484;52.054;8.518;2023-04-24T22:21:40;12.75;;;3.97;;
65715;SDS011;63484;52.054;8.518;2023-04-24T22:26:46;9.15;;;3.67;;
65715;SDS011;63484;52.054;8.518;2023-04-24T22:31:47;9.32;;;3.70;;
65715;SDS011;63484;52.054;8.518;2023-04-24T22:36:51;11.13;;;3.83;;
65715;SDS011;63484;52.054;8.518;2023-04-24T22:41:57;6.95;;;3.30;;
65715;SDS011;63484;52.054;8.518;2023-04-24T22:46:58;12.70;;;4.07;;
65715;SDS011;63484;52.054;8.518;2023-04-24T22:52:00;18.92;;;4.25;;
65715;SDS011;63484;52.054;8.518;2023-04-24T23:02:06;18.77;;;4.65;;
65715;SDS011;63484;52.054;8.518;2023-04-24T23:07:08;17.95;;;4.55;;
65715;SDS011;63484;52.054;8.518;2023-04-24T23:12:09;13.45;;;4.88;;
65715;SDS011;63484;52.054;8.518;2023-04-24T23:17:12;14.40;;;4.25;;
65715;SDS011;63484;52.054;8.518;2023-04-24T23:22:14;18.50;;;4.32;;
65715;SDS011;63484;52.054;8.518;2023-04-24T23:27:18;13.07;;;4.00;;
65715;SDS011;63484;52.054;8.518;2023-04-24T23:32:21;13.82;;;4.22;;
65715;SDS011;63484;52.054;8.518;2023-04-24T23:37:22;15.93;;;4.03;;
65715;SDS011;63484;52.054;8.518;2023-04-24T23:42:24;13.40;;;4.10;;
65715;SDS011;63484;52.054;8.518;2023-04-24T23:47:26;21.77;;;3.80;;
65715;SDS011;63484;52.054;8.518;2023-04-24T23:52:30;12.27;;;3.80;;
65715;SDS011;63484;52.054;8.518;2023-04-24T23:57:33;17.47;;;3.80;;
